createdAt,value
2023-06-04T00:00:46.524Z,931.5
2023-06-04T00:15:44.556Z,931.6
2023-06-04T00:30:45.068Z,931.6
2023-06-04T00:45:45.128Z,931.9
2023-06-04T01:00:50.176Z,931.8
2023-06-04T01:15:49.150Z,932.1
2023-06-04T01:30:49.812Z,931.7
2023-06-04T01:45:50.850Z,931.9
2023-06-04T02:00:51.794Z,931.8
2023-06-04T02:15:50.152Z,931.8
2023-06-04T02:30:52.344Z,932.1
2023-06-04T02:45:51.409Z,931.9
2023-06-04T03:00:52.813Z,932
2023-06-04T03:12:21.810Z,932
2023-06-04T03:27:23.332Z,932
2023-06-04T03:42:22.613Z,932.1
2023-06-04T03:57:23.493Z,932.7
2023-06-04T04:12:24.872Z,934.9
2023-06-04T04:27:24.792Z,933.7
2023-06-04T04:42:25.415Z,933.7
2023-06-04T04:57:27.463Z,934.1
2023-06-04T05:12:27.443Z,934.7
2023-06-04T05:27:27.548Z,933.5
2023-06-04T05:42:28.758Z,933.5
2023-06-04T05:57:29.830Z,933.3
2023-06-04T06:12:29.552Z,933.3
2023-06-04T06:27:31.167Z,933.1
2023-06-04T06:42:31.118Z,933
2023-06-04T06:57:32.094Z,932.9
2023-06-04T07:12:32.485Z,932.9
2023-06-04T07:27:33.674Z,932.7
2023-06-04T07:42:33.828Z,932.6
2023-06-04T07:57:39.597Z,932.6
2023-06-04T08:12:35.009Z,932.6
2023-06-04T08:27:37.035Z,932.6
2023-06-04T08:42:36.859Z,932.7
2023-06-04T08:57:37.201Z,932.7
2023-06-04T09:12:39.680Z,932.7
2023-06-04T09:27:40.422Z,932.7
2023-06-04T09:42:39.251Z,932.7
2023-06-04T09:57:39.524Z,932.7
2023-06-04T10:12:41.503Z,932.6
2023-06-04T10:27:42.525Z,932.7
2023-06-04T10:42:42.051Z,932.6
2023-06-04T10:57:42.881Z,932.6
2023-06-04T11:12:43.120Z,932.6
2023-06-04T11:27:44.215Z,932.5
2023-06-04T11:42:44.348Z,932.5
2023-06-04T11:57:44.840Z,932.6
2023-06-04T12:12:45.673Z,932.4
2023-06-04T12:27:46.608Z,932.5
2023-06-04T12:42:46.978Z,932.4
2023-06-04T12:57:50.498Z,932.4
2023-06-04T13:12:48.695Z,932.5
2023-06-04T13:27:49.042Z,932.5
2023-06-04T13:42:49.943Z,932.6
2023-06-04T13:57:50.420Z,932.7
2023-06-04T14:12:57.832Z,932.7
2023-06-04T14:27:52.303Z,932.8
2023-06-04T14:43:00.228Z,932.8
2023-06-04T14:57:52.990Z,932.6
2023-06-04T15:12:54.152Z,932.6
2023-06-04T15:27:57.148Z,932.6
2023-06-04T15:42:57.883Z,932.6
2023-06-04T15:57:55.560Z,932.5
2023-06-04T16:12:57.747Z,932.3
2023-06-04T16:27:56.916Z,932.3
2023-06-04T16:42:57.989Z,932.2
2023-06-04T16:57:57.846Z,932.3
2023-06-04T17:13:02.011Z,932.3
2023-06-04T17:28:00.245Z,932.3
2023-06-04T17:43:00.059Z,932.4
2023-06-04T17:58:01.416Z,932.4
2023-06-04T18:13:00.594Z,932.3
2023-06-04T18:28:02.230Z,932.2
2023-06-04T18:43:03.717Z,932.5
2023-06-04T18:58:03.829Z,932.3
2023-06-04T19:13:06.306Z,932.3
2023-06-04T19:28:04.060Z,932.6
2023-06-04T19:43:04.659Z,932.7
2023-06-04T19:58:07.497Z,932.7
2023-06-04T20:13:05.834Z,932.8
2023-06-04T20:28:10.421Z,933
2023-06-04T20:43:08.631Z,932.8
2023-06-04T20:58:07.645Z,932.8
2023-06-04T21:13:08.515Z,932.8
2023-06-04T21:28:08.071Z,932.8
2023-06-04T21:43:11.757Z,932.8
2023-06-04T21:58:09.234Z,932.7
2023-06-04T22:00:37.532Z,932.7
2023-06-04T22:15:37.842Z,932.7
2023-06-04T22:30:39.523Z,932.7
2023-06-04T22:45:38.564Z,932.7
2023-06-04T23:00:39.178Z,932.7
2023-06-04T23:15:39.712Z,932.6
2023-06-04T23:30:40.813Z,932.5
2023-06-04T23:45:42.616Z,932.5
